createdAt,value
2022-09-18T00:02:36.326Z,8.05
2022-09-18T00:05:53.813Z,7.93
2022-09-18T00:09:18.835Z,7.94
2022-09-18T00:12:38.421Z,7.89
2022-09-18T00:15:59.708Z,7.90
2022-09-18T00:19:26.474Z,7.91
2022-09-18T00:22:50.141Z,7.88
2022-09-18T00:26:12.880Z,7.86
2022-09-18T00:29:33.548Z,7.85
2022-09-18T00:32:55.916Z,7.77
2022-09-18T00:36:26.568Z,7.75
2022-09-18T00:39:53.391Z,7.80
2022-09-18T00:43:25.747Z,7.77
2022-09-18T00:46:49.418Z,7.83
2022-09-18T00:50:23.878Z,7.83
2022-09-18T00:54:04.129Z,7.82
2022-09-18T00:57:34.977Z,7.70
2022-09-18T01:01:02.491Z,7.72
2022-09-18T01:04:23.146Z,7.73
2022-09-18T01:08:07.887Z,7.64
2022-09-18T01:11:49.736Z,7.65
2022-09-18T01:15:25.428Z,7.71
2022-09-18T01:18:59.975Z,7.57
2022-09-18T01:22:50.594Z,7.56
2022-09-18T01:26:42.574Z,7.50
2022-09-18T01:30:17.969Z,7.50
2022-09-18T01:33:55.378Z,7.43
2022-09-18T01:37:34.899Z,7.43
2022-09-18T01:41:03.239Z,7.39
2022-09-18T01:44:36.473Z,7.40
2022-09-18T01:48:08.413Z,7.37
2022-09-18T01:51:39.209Z,7.38
2022-09-18T01:55:06.527Z,7.38
2022-09-18T01:58:36.567Z,7.40
2022-09-18T02:02:11.565Z,7.34
2022-09-18T02:05:43.294Z,7.34
2022-09-18T02:09:12.899Z,7.19
2022-09-18T02:12:33.012Z,7.18
2022-09-18T02:16:08.761Z,7.14
2022-09-18T02:19:43.807Z,7.11
2022-09-18T02:23:11.689Z,7.09
2022-09-18T02:26:38.894Z,7.02
2022-09-18T02:30:06.843Z,6.97
2022-09-18T02:33:34.729Z,6.93
2022-09-18T02:37:16.518Z,6.87
2022-09-18T02:40:58.469Z,6.83
2022-09-18T02:44:35.663Z,6.69
2022-09-18T02:48:30.477Z,6.64
2022-09-18T02:52:08.647Z,6.63
2022-09-18T02:55:48.921Z,6.55
2022-09-18T02:59:25.236Z,6.50
2022-09-18T03:02:53.635Z,6.41
2022-09-18T03:06:26.065Z,6.35
2022-09-18T03:09:42.777Z,6.29
2022-09-18T03:13:05.225Z,6.27
2022-09-18T03:16:32.703Z,6.19
2022-09-18T03:19:52.860Z,6.20
2022-09-18T03:23:08.967Z,6.14
2022-09-18T03:26:28.817Z,6.13
2022-09-18T03:29:55.612Z,6.10
2022-09-18T03:33:19.021Z,6.07
2022-09-18T03:36:43.727Z,5.99
2022-09-18T03:40:11.311Z,6.07
2022-09-18T03:43:39.771Z,6.10
2022-09-18T03:47:09.755Z,6.06
2022-09-18T03:50:31.181Z,6.06
2022-09-18T03:53:52.721Z,6.03
2022-09-18T03:57:41.169Z,6.00
2022-09-18T04:01:31.230Z,5.92
2022-09-18T04:05:15.639Z,5.91
2022-09-18T04:08:58.179Z,6.00
2022-09-18T04:12:23.677Z,5.94
2022-09-18T04:16:00.547Z,5.90
2022-09-18T04:19:34.175Z,5.91
2022-09-18T04:22:53.101Z,5.94
2022-09-18T04:26:16.137Z,5.92
2022-09-18T04:29:46.340Z,5.93
2022-09-18T04:33:11.877Z,5.67
2022-09-18T04:36:31.841Z,5.56
2022-09-18T04:39:54.508Z,5.58
2022-09-18T04:43:13.223Z,5.53
2022-09-18T04:46:33.769Z,5.61
2022-09-18T04:49:54.104Z,5.69
2022-09-18T04:53:13.627Z,5.71
2022-09-18T04:56:32.968Z,5.70
2022-09-18T04:59:50.396Z,5.56
2022-09-18T05:03:14.305Z,5.59
2022-09-18T05:06:32.265Z,5.57
2022-09-18T05:09:56.103Z,5.47
2022-09-18T05:13:30.661Z,5.45
2022-09-18T05:16:53.275Z,5.48
2022-09-18T05:20:22.103Z,5.51
2022-09-18T05:23:45.534Z,5.51
2022-09-18T05:27:02.068Z,5.40
2022-09-18T05:30:24.319Z,5.44
2022-09-18T05:33:50.658Z,5.56
2022-09-18T05:37:10.711Z,5.59
2022-09-18T05:40:35.797Z,5.70
2022-09-18T05:43:53.836Z,5.63
2022-09-18T05:47:18.222Z,5.54
2022-09-18T05:50:46.275Z,5.73
2022-09-18T05:54:15.157Z,5.56
2022-09-18T05:57:40.509Z,5.55
2022-09-18T06:01:02.465Z,5.58
2022-09-18T06:04:43.172Z,5.58
2022-09-18T06:08:01.917Z,5.80
2022-09-18T06:11:20.513Z,5.77
2022-09-18T06:14:43.314Z,6.03
2022-09-18T06:18:04.239Z,6.14
2022-09-18T06:21:28.241Z,6.25
2022-09-18T06:24:53.255Z,6.48
2022-09-18T06:28:23.519Z,6.51
2022-09-18T06:31:40.805Z,6.40
2022-09-18T06:35:00.903Z,6.34
2022-09-18T06:38:25.945Z,6.33
2022-09-18T06:41:43.383Z,6.24
2022-09-18T06:45:12.412Z,6.43
2022-09-18T06:48:33.822Z,6.52
2022-09-18T06:52:04.587Z,6.66
2022-09-18T06:55:27.257Z,6.64
2022-09-18T06:58:44.105Z,6.72
2022-09-18T07:02:19.593Z,6.89
2022-09-18T07:05:54.099Z,7.08
2022-09-18T07:09:31.259Z,7.32
2022-09-18T07:12:59.871Z,7.17
2022-09-18T07:16:24.314Z,7.35
2022-09-18T07:19:44.146Z,7.38
2022-09-18T07:23:05.839Z,7.56
2022-09-18T07:26:41.329Z,8.06
2022-09-18T07:30:04.864Z,8.17
2022-09-18T07:33:31.271Z,8.36
2022-09-18T07:36:52.841Z,8.48
2022-09-18T07:40:14.897Z,8.62
2022-09-18T07:44:05.586Z,8.57
2022-09-18T07:47:26.366Z,8.44
2022-09-18T07:50:46.667Z,8.44
2022-09-18T07:54:13.245Z,8.69
2022-09-18T07:57:59.176Z,9.43
2022-09-18T08:01:43.371Z,9.73
2022-09-18T08:05:07.917Z,10.40
2022-09-18T08:08:46.715Z,11.07
2022-09-18T08:12:13.581Z,11.20
2022-09-18T08:15:54.311Z,10.92
2022-09-18T08:19:44.245Z,11.04
2022-09-18T08:23:19.082Z,11.19
2022-09-18T08:26:44.554Z,12.15
2022-09-18T08:30:04.837Z,11.28
2022-09-18T08:33:23.836Z,12.15
2022-09-18T08:36:44.681Z,13.44
2022-09-18T08:41:10.566Z,13.77
2022-09-18T08:44:47.810Z,13.39
2022-09-18T08:48:24.612Z,13.41
2022-09-18T08:51:57.527Z,12.97
2022-09-18T08:55:27.756Z,12.00
2022-09-18T08:59:28.124Z,11.43
2022-09-18T09:02:51.717Z,10.94
2022-09-18T09:06:53.178Z,10.52
2022-09-18T09:10:48.226Z,10.62
2022-09-18T09:15:00.183Z,10.67
2022-09-18T09:18:30.288Z,12.53
2022-09-18T09:22:08.702Z,13.33
2022-09-18T09:25:47.224Z,13.41
2022-09-18T09:29:33.145Z,13.07
2022-09-18T09:33:04.961Z,13.40
2022-09-18T09:36:38.126Z,13.32
2022-09-18T09:40:16.312Z,13.13
2022-09-18T09:43:49.329Z,13.23
2022-09-18T09:47:35.537Z,13.15
2022-09-18T09:51:05.585Z,12.73
2022-09-18T09:54:24.485Z,12.64
2022-09-18T09:58:02.546Z,12.57
2022-09-18T10:01:30.656Z,12.50
2022-09-18T10:05:10.142Z,11.79
2022-09-18T10:08:48.962Z,11.12
2022-09-18T10:12:30.370Z,10.94
2022-09-18T10:16:00.908Z,11.00
2022-09-18T10:19:25.570Z,11.13
2022-09-18T10:22:45.410Z,10.97
2022-09-18T10:26:04.872Z,10.96
2022-09-18T10:29:25.083Z,10.37
2022-09-18T10:32:51.306Z,9.86
2022-09-18T10:36:26.903Z,10.12
2022-09-18T10:40:00.118Z,10.38
2022-09-18T10:43:24.353Z,10.41
2022-09-18T10:47:03.439Z,11.03
2022-09-18T10:50:26.133Z,11.42
2022-09-18T10:53:45.630Z,11.70
2022-09-18T10:57:37.402Z,11.58
2022-09-18T11:01:10.509Z,10.99
2022-09-18T11:04:39.935Z,10.83
2022-09-18T11:08:23.152Z,10.56
2022-09-18T11:11:52.188Z,10.25
2022-09-18T11:15:25.654Z,9.97
2022-09-18T11:18:43.916Z,9.86
2022-09-18T11:22:08.234Z,9.53
2022-09-18T11:25:34.063Z,9.32
2022-09-18T11:29:12.184Z,9.00
2022-09-18T11:32:41.787Z,9.29
2022-09-18T11:36:13.536Z,9.32
2022-09-18T11:39:46.701Z,9.36
2022-09-18T11:43:24.838Z,9.62
2022-09-18T11:47:08.761Z,9.54
2022-09-18T11:50:42.544Z,9.20
2022-09-18T11:54:16.834Z,9.41
2022-09-18T11:57:42.615Z,9.31
2022-09-18T12:01:20.961Z,9.15
2022-09-18T12:04:54.387Z,9.15
2022-09-18T12:08:28.071Z,9.21
2022-09-18T12:12:07.260Z,8.99
2022-09-18T12:15:40.995Z,9.03
2022-09-18T12:19:12.987Z,8.93
2022-09-18T12:22:49.149Z,9.09
2022-09-18T12:26:29.398Z,8.94
2022-09-18T12:30:11.660Z,8.76
2022-09-18T12:33:50.388Z,8.66
2022-09-18T12:37:41.950Z,8.69
2022-09-18T12:41:40.182Z,8.51
2022-09-18T12:45:57.450Z,8.51
2022-09-18T12:49:48.832Z,8.47
2022-09-18T12:53:37.876Z,8.41
2022-09-18T12:57:22.439Z,8.30
2022-09-18T13:00:51.845Z,8.26
2022-09-18T13:04:31.610Z,8.37
2022-09-18T13:08:00.126Z,8.51
2022-09-18T13:11:32.363Z,8.90
2022-09-18T13:15:22.977Z,9.04
2022-09-18T13:18:52.953Z,8.76
2022-09-18T13:22:27.596Z,8.81
2022-09-18T13:25:40.697Z,8.80
2022-09-18T13:28:47.979Z,8.93
2022-09-18T13:31:59.128Z,8.83
2022-09-18T13:35:10.901Z,8.84
2022-09-18T13:38:23.468Z,8.98
2022-09-18T13:41:34.813Z,8.91
2022-09-18T13:44:41.844Z,8.93
2022-09-18T13:48:08.429Z,8.79
2022-09-18T13:51:31.410Z,8.92
2022-09-18T13:54:37.406Z,8.98
2022-09-18T13:57:51.914Z,8.88
2022-09-18T14:00:57.743Z,8.94
2022-09-18T14:04:08.450Z,8.95
2022-09-18T14:07:56.515Z,9.02
2022-09-18T14:11:17.750Z,9.20
2022-09-18T14:14:28.258Z,9.09
2022-09-18T14:17:41.475Z,9.04
2022-09-18T14:20:56.438Z,8.93
2022-09-18T14:24:38.166Z,9.00
2022-09-18T14:27:57.951Z,9.07
2022-09-18T14:31:30.062Z,9.07
2022-09-18T14:34:43.782Z,9.00
2022-09-18T14:37:52.194Z,9.11
2022-09-18T14:41:18.414Z,9.19
2022-09-18T14:44:26.435Z,9.12
2022-09-18T14:47:32.082Z,9.21
2022-09-18T14:50:40.920Z,9.15
2022-09-18T14:53:53.483Z,9.12
2022-09-18T14:57:05.131Z,9.23
2022-09-18T15:00:22.922Z,9.28
2022-09-18T15:03:35.013Z,9.18
2022-09-18T15:06:47.990Z,9.07
2022-09-18T15:10:03.525Z,9.10
2022-09-18T15:13:15.319Z,9.26
2022-09-18T15:16:24.641Z,9.43
2022-09-18T15:19:32.137Z,9.73
2022-09-18T15:22:37.886Z,10.06
2022-09-18T15:25:51.367Z,10.07
2022-09-18T15:29:08.749Z,10.14
2022-09-18T15:32:23.934Z,10.12
2022-09-18T15:35:39.632Z,10.09
2022-09-18T15:38:48.837Z,10.07
2022-09-18T15:41:57.376Z,10.12
2022-09-18T15:45:25.701Z,10.24
2022-09-18T15:48:51.951Z,10.17
2022-09-18T15:52:38.876Z,10.32
2022-09-18T15:55:58.642Z,10.40
2022-09-18T15:59:18.817Z,10.31
2022-09-18T16:02:37.802Z,10.36
2022-09-18T16:05:55.260Z,10.37
2022-09-18T16:09:04.997Z,10.35
2022-09-18T16:12:38.258Z,10.14
2022-09-18T16:15:48.182Z,10.05
2022-09-18T16:19:05.811Z,9.90
2022-09-18T16:22:14.098Z,9.75
2022-09-18T16:25:41.742Z,9.33
2022-09-18T16:28:53.602Z,9.16
2022-09-18T16:32:05.042Z,8.93
2022-09-18T16:35:17.005Z,8.70
2022-09-18T16:38:22.615Z,8.47
2022-09-18T16:41:28.614Z,8.40
2022-09-18T16:44:35.856Z,8.23
2022-09-18T16:47:53.589Z,8.12
2022-09-18T16:50:59.319Z,8.02
2022-09-18T16:54:07.791Z,7.91
2022-09-18T16:57:22.392Z,7.83
2022-09-18T17:00:28.550Z,7.71
2022-09-18T17:03:50.266Z,7.54
2022-09-18T17:06:58.397Z,7.43
2022-09-18T17:10:17.855Z,7.36
2022-09-18T17:13:25.433Z,7.36
2022-09-18T17:16:44.182Z,7.30
2022-09-18T17:19:53.978Z,7.21
2022-09-18T17:22:59.696Z,7.09
2022-09-18T17:26:22.543Z,7.15
2022-09-18T17:29:32.191Z,7.13
2022-09-18T17:32:39.113Z,7.26
2022-09-18T17:35:47.690Z,7.38
2022-09-18T17:38:53.585Z,7.51
2022-09-18T17:41:59.199Z,7.67
2022-09-18T17:45:05.333Z,7.78
2022-09-18T17:48:21.859Z,7.84
2022-09-18T17:51:33.461Z,7.88
2022-09-18T17:54:39.810Z,8.03
2022-09-18T17:57:45.958Z,8.18
2022-09-18T18:00:51.798Z,8.28
2022-09-18T18:03:58.191Z,8.33
2022-09-18T18:07:07.993Z,8.34
2022-09-18T18:10:13.840Z,8.31
2022-09-18T18:13:20.388Z,8.12
2022-09-18T18:16:30.767Z,8.19
2022-09-18T18:19:36.633Z,8.25
2022-09-18T18:22:45.773Z,8.09
2022-09-18T18:25:55.463Z,7.86
2022-09-18T18:29:02.497Z,7.71
2022-09-18T18:32:08.641Z,7.56
2022-09-18T18:35:15.820Z,7.31
2022-09-18T18:38:24.839Z,7.24
2022-09-18T18:41:34.156Z,7.27
2022-09-18T18:44:42.164Z,7.24
2022-09-18T18:47:48.783Z,7.19
2022-09-18T18:50:58.588Z,7.15
2022-09-18T18:54:10.059Z,7.05
2022-09-18T18:57:15.574Z,7.01
2022-09-18T19:00:21.848Z,7.06
2022-09-18T19:03:28.263Z,6.96
2022-09-18T19:06:34.280Z,6.94
2022-09-18T19:09:42.947Z,6.87
2022-09-18T19:12:48.687Z,6.88
2022-09-18T19:15:54.869Z,6.82
2022-09-18T19:19:03.894Z,6.79
2022-09-18T19:22:16.912Z,6.78
2022-09-18T19:25:25.894Z,6.70
2022-09-18T19:28:33.387Z,6.60
2022-09-18T19:31:42.912Z,6.60
2022-09-18T19:34:48.538Z,6.55
2022-09-18T19:37:54.504Z,6.48
2022-09-18T19:41:09.318Z,6.44
2022-09-18T19:44:24.357Z,6.31
2022-09-18T19:47:35.292Z,6.34
2022-09-18T19:50:42.897Z,6.32
2022-09-18T19:53:48.857Z,6.22
2022-09-18T19:56:59.186Z,6.22
2022-09-18T20:00:05.999Z,6.20
2022-09-18T20:03:17.739Z,6.13
2022-09-18T20:06:23.675Z,6.10
2022-09-18T20:09:30.819Z,6.05
2022-09-18T20:12:43.417Z,6.10
2022-09-18T20:15:48.958Z,6.03
2022-09-18T20:18:54.808Z,6.03
2022-09-18T20:22:02.378Z,6.03
2022-09-18T20:25:09.344Z,6.03
2022-09-18T20:28:17.661Z,6.03
2022-09-18T20:31:24.315Z,6.08
2022-09-18T20:34:29.916Z,6.14
2022-09-18T20:37:35.760Z,6.16
2022-09-18T20:40:42.311Z,6.30
2022-09-18T20:43:55.100Z,6.42
2022-09-18T20:47:00.736Z,6.50
2022-09-18T20:50:08.951Z,6.54
2022-09-18T20:53:14.470Z,6.45
2022-09-18T20:56:21.838Z,6.56
2022-09-18T20:59:31.440Z,6.60
2022-09-18T21:02:38.282Z,6.61
2022-09-18T21:05:45.816Z,6.61
2022-09-18T21:08:54.032Z,6.70
2022-09-18T21:11:59.674Z,6.73
2022-09-18T21:15:11.089Z,6.81
2022-09-18T21:18:19.185Z,7.01
2022-09-18T21:21:25.372Z,6.88
2022-09-18T21:24:32.533Z,6.90
2022-09-18T21:27:38.023Z,6.69
2022-09-18T21:30:46.180Z,6.74
2022-09-18T21:33:53.181Z,6.97
2022-09-18T21:37:02.759Z,7.15
2022-09-18T21:40:09.954Z,7.26
2022-09-18T21:43:17.412Z,7.27
2022-09-18T21:46:26.466Z,7.29
2022-09-18T21:49:33.110Z,7.28
2022-09-18T21:52:38.612Z,7.29
2022-09-18T21:55:46.285Z,7.33
2022-09-18T21:58:56.859Z,7.16
2022-09-18T22:02:12.042Z,7.05
2022-09-18T22:05:18.830Z,7.19
2022-09-18T22:08:25.787Z,7.24
2022-09-18T22:11:37.153Z,7.21
2022-09-18T22:14:43.594Z,7.29
2022-09-18T22:18:07.543Z,7.23
2022-09-18T22:21:23.328Z,7.26
2022-09-18T22:24:30.596Z,7.32
2022-09-18T22:27:41.863Z,7.26
2022-09-18T22:30:49.493Z,7.35
2022-09-18T22:34:01.288Z,7.36
2022-09-18T22:37:08.697Z,7.48
2022-09-18T22:40:16.533Z,7.41
2022-09-18T22:43:27.331Z,7.36
2022-09-18T22:46:41.628Z,7.26
2022-09-18T22:49:59.680Z,7.19
2022-09-18T22:53:14.196Z,7.16
2022-09-18T22:56:34.578Z,7.13
2022-09-18T22:59:48.364Z,7.01
2022-09-18T23:03:04.892Z,6.89
2022-09-18T23:06:16.425Z,6.81
2022-09-18T23:09:35.792Z,6.79
2022-09-18T23:12:43.476Z,6.71
2022-09-18T23:15:51.542Z,6.71
2022-09-18T23:19:01.102Z,6.72
2022-09-18T23:22:10.156Z,6.77
2022-09-18T23:25:16.626Z,6.69
2022-09-18T23:28:26.213Z,6.68
2022-09-18T23:31:40.918Z,6.62
2022-09-18T23:41:20.341Z,6.48
2022-09-18T23:44:28.744Z,6.54
2022-09-18T23:47:37.410Z,6.57
2022-09-18T23:50:43.545Z,6.52
2022-09-18T23:53:59.858Z,6.43
2022-09-18T23:57:10.903Z,6.49
